Thrashers Corner, Washington
Current Conditions -  °F | °C
As of 3:53 AM on Monday 22 Dec 2014 (Local Time) from KPAE Reporting Station
Clear Clear  
Wind Chill: 44°   Ceiling: Unl
Heat Index: 47°   Visibility: 10mi
Dew Point: 36°   Wind: 7mph
Humidity: 66%   Direction: 340°NNW
Pressure: 30.19"   Gusts: NA
Location:  47.7933°N, 122.207°W
Report Text: KPAE 221153Z AUTO 34006KT 10SM CLR 08/02 A3019 RMK AO2 SLP226 70020 T00830022 10089 20067 53018
Loading
Personal Weather Stations






























Interactive Weather Map New forecast layout! Learn more

10-Day Weather Forecast

Advertisements
Track Severe Weather on mobile